Meteo Giornale » Osservazioni meteo Stati Uniti (USA) » Kingman
ore: 13:51 - Osservazioni Meteo Kingman
Lat. 35° 15' N Lon. 113° 55' W Alt. 1050 metri s.l.m.
31 °C
Coperto
Temp. 24 Ore
23 °C
36 °C
Sud/Sud-Est
27.8 Km/h
Dew point 14 °C
Umidità 35 %
Visibilità 10 Km
Il sole sorge alle ore 06:07
Il sole tramonta alle ore 19:04
| Data e Ora | Cielo e Fenomeni | T °C | DP °C | Um. % | Pres. hPa | Vis. km | Vento km/h | |
|---|---|---|---|---|---|---|---|---|
| Oggi h: 13:51 | Coperto | 31 | 14 | 35 | 1016 | 10 | S/SE 27.8 | |
| Oggi h: 12:51 | Coperto | 28 | 14 | 42 | 1017 | 10 | E/SE 27.8 | |
| Oggi h: 11:51 | Sereno | 29 | 14 | 39 | 1018 | 10 | E/SE 33.3 | |
| Oggi h: 10:51 | Nuvoloso | 26 | 15 | 50 | 1018 | 10 | E/SE 31.5 | |
| Oggi h: 09:51 | Poco Nuvoloso | 24 | 16 | 60 | 1018 | 10 | SE 18.5 | |
| Oggi h: 08:51 | Coperto | 24 | 14 | 53 | 1017 | 10 | S/SE 24 | |
| Oggi h: 08:45 | Coperto | 24 | 14 | 53 | 1017 | 10 | S/SE 29.6 | |
| Oggi h: 08:30 | Temporale nelle vicinanze Pioggia | 23 | 16 | 64 | 1017 | 10 | SE 18.5 | |
| Oggi h: 07:58 | Molto Nuvoloso | 23 | 15 | 60 | 1017 | 10 | E/SE 22.2 | |
| Oggi h: 07:51 | Temporale nelle vicinanze | 23 | 16 | 64 | 1017 | 10 | E/SE 25.9 | |
| Oggi h: 07:46 | Temporale nelle vicinanze | 23 | 16 | 64 | 1017 | 10 | E/SE 29.6 | |
| Oggi h: 07:15 | Temporale | 26 | 13 | 44 | 1017 | 10 | SE 18.5 | |
| Oggi h: 07:08 | Molto Nuvoloso | 25 | 13 | 47 | 1016 | 10 | E/SE 14.8 | |
| Oggi h: 06:51 | Temporale nelle vicinanze | 25 | 13 | 47 | 1016 | 10 | SE 18.5 | |
| Oggi h: 05:51 | Sereno | 25 | 13 | 47 | 1015 | 10 | S 11.1 | |
| Oggi h: 04:51 | Sereno | 26 | 13 | 44 | 1015 | 10 | E/SE 9.3 | |
| Oggi h: 03:51 | Sereno | 26 | 13 | 44 | 1015 | 10 | S/SE 20.3 | |
| Oggi h: 02:51 | Sereno | 26 | 14 | 47 | 1015 | 10 | SE 29.6 | |
| Oggi h: 01:51 | Sereno | 26 | 13 | 44 | 1015 | 10 | S/SE 18.5 | |
| Oggi h: 00:51 | Sereno | 27 | 13 | 42 | 1015 | 10 | S 9.3 | |
| Ieri h: 23:51 | Sereno | 26 | 9 | 34 | 1015 | 10 | N 5.5 | |
| Ieri h: 22:51 | Sereno | 28 | 8 | 28 | 1015 | 10 | S/SO 18.5 | |
| Ieri h: 21:51 | Sereno | 29 | 5 | 21 | 1015 | 10 | S/SO 22.2 | |
| Ieri h: 20:51 | Sereno | 30 | 13 | 35 | 1015 | 10 | S 13 | |
| Ieri h: 19:51 | Poco Nuvoloso | 31 | 13 | 33 | 1014 | 10 | S/SO 18.5 | |
| Ieri h: 18:51 | Sereno | 32 | 12 | 29 | 1014 | 10 | S/SO 18.5 | |
| Ieri h: 17:51 | Sereno | 33 | 10 | 24 | 1014 | 10 | S/SO 33.3 | |
| Ieri h: 16:51 | Sereno | 34 | 9 | 21 | 1014 | 10 | O/SO 29.6 | |
| Ieri h: 15:51 | Sereno | 34 | 10 | 23 | 1014 | 10 | SO 35.2 | |
| Ieri h: 14:51 | Sereno | 36 | 9 | 19 | 1015 | 10 | SO 37 | |



